Home > Products > Valid Products > TAF

000
FTUS43 KMQT 282300
TAFSAW
TAF
KSAW 282320Z 2900/2924 32005KT P6SM VCSH SCT040 BKN060
     FM292100 36008KT P6SM SCT060
      AMD LTD TO CLD VIS AND WIND 2902/2910=



000
FTUS43 KMQT 282300
TAFCMX
TAF
KCMX 282320Z 2900/2924 29009KT P6SM VCSH SCT040 BKN060
     FM291900 32009KT P6SM SCT060
      AMD NOT SKED=



000
FTUS43 KMQT 281900 AAC
TAFSAW
TAF AMD
KSAW 281950Z 2820/2918 35010G17KT P6SM SCT050
     FM290100 32005KT P6SM BKN070
     FM291200 34008KT P6SM VCSH BKN070
      AMD LTD TO CLD VIS AND WIND 2902/2910=



000
FTUS43 KMQT 281900 AAB
TAFSAW
TAF AMD
KSAW 281915Z 2819/2918 33010G17KT P6SM SCT050
     FM290100 32005KT P6SM BKN070
     FM291200 34008KT P6SM VCSH BKN070
      AMD LTD TO CLD VIS AND WIND 2902/2910=



000
FTUS43 KMQT 281800 AAA
TAFSAW
TAF AMD
KSAW 281830Z 2819/2918 33010G17KT P6SM SCT050
     FM281900 36010KT P6SM BKN050
     FM290100 32005KT P6SM BKN070
     FM291200 34008KT P6SM VCSH BKN070
      AMD LTD TO CLD VIS AND WIND 2902/2910=



000
FTUS43 KMQT 281700
TAFSAW
TAF
KSAW 281736Z 2818/2918 01008KT P6SM SCT080
     FM281900 36010KT P6SM BKN050
     FM290100 32005KT P6SM BKN070
     FM291200 34008KT P6SM VCSH BKN070
      AMD LTD TO CLD VIS AND WIND 2902/2910=



000
FTUS43 KMQT 281700
TAFCMX
TAF
KCMX 281736Z 2818/2918 30010KT P6SM BKN060
     FM290600 30007KT P6SM VCSH BKN050
     FM291200 30008KT P6SM BKN060
      AMD NOT SKED=



000
FTUS43 KMQT 281100
TAFSAW
TAF
KSAW 281129Z 2812/2912 31004KT P6SM OVC060
     FM281600 35008KT P6SM SCT080
     FM281900 36010KT P6SM BKN050
     FM290100 32005KT P6SM BKN070
      AMD LTD TO CLD VIS AND WIND 2902/2910=



000
FTUS43 KMQT 281100
TAFCMX
TAF
KCMX 281129Z 2812/2912 29008KT P6SM SCT060
     FM281700 29014KT P6SM BKN060
     FM290600 30007KT P6SM VCSH BKN050=



000
FTUS43 KMQT 280500
TAFCMX
TAF
KCMX 280524Z 2806/2906 33005KT P6SM SKC
     FM281400 29008KT P6SM SCT050
     FM281700 29012KT P6SM BKN050=



000
FTUS43 KMQT 280500
TAFSAW
TAF
KSAW 280524Z 2806/2906 36009KT P6SM SKC
     FM280900 32005KT P6SM SKC
     FM281900 33009KT P6SM BKN050
      AMD LTD TO CLD VIS AND WIND TIL 281000=



000
FTUS43 KMQT 272300
TAFCMX
TAF
KCMX 272327Z 2800/2824 36009KT P6SM SCT050
     FM280400 33005KT P6SM SKC
     FM281400 29008KT P6SM SCT050
     FM281700 28014KT P6SM BKN050=



000
FTUS43 KMQT 272300
TAFSAW
TAF
KSAW 272327Z 2800/2824 36013KT P6SM SCT050
     FM280200 32005KT P6SM SKC
     FM281900 33009KT P6SM BKN050
      AMD LTD TO CLD VIS AND WIND 2802/2810=



000
FTUS43 KMQT 272000 AAA
TAFSAW
TAF AMD
KSAW 272059Z 2721/2818 36012KT P6SM BKN035
     FM272300 36008KT P6SM SKC
     FM280700 36008KT P6SM FEW050
      AMD LTD TO CLD VIS AND WIND 2802/2810=



000
FTUS43 KMQT 271700
TAFSAW
TAF
KSAW 271737Z 2718/2818 02014KT 5SM -SHRA OVC008
      TEMPO 2718/2719 2SM -SHRA BR BKN002
     FM272000 01012KT 5SM -SHRA SCT008 OVC015
     FM272200 36013KT P6SM SCT030
      TEMPO 2722/2723 BKN030
     FM280300 36008KT P6SM SKC
     FM280700 36008KT P6SM FEW050
      AMD LTD TO CLD VIS AND WIND 2802/2810=



000
FTUS43 KMQT 271700
TAFCMX
TAF
KCMX 271737Z 2718/2818 04010KT 5SM -SHRA SCT008 OVC015
     FM271900 03010KT P6SM OVC015
     FM272000 02010KT P6SM SCT025
      TEMPO 2720/2722 BKN025
     FM280400 34005KT P6SM SKC
     FM281400 29008KT P6SM SCT050=



000
FTUS43 KMQT 271500 AAC
TAFSAW
TAF AMD
KSAW 271558Z 2716/2812 03008KT 5SM -SHRA BR BKN008 OVC020
     FM271800 01012KT P6SM -SHRA SCT015 OVC025
     FM272200 36012KT P6SM BKN050
     FM280000 35009KT P6SM SCT050
     FM280600 34007KT P6SM SKC
      AMD LTD TO CLD VIS AND WIND 2802/2810=



000
FTUS43 KMQT 271300 AAB
TAFCMX
TAF AMD
KCMX 271355Z 2714/2812 05005KT 1/4SM FG VV001
     FM271500 08007KT 2SM -SHRA BR OVC006
      TEMPO 2715/2716 1/2SM FG OVC003
     FM271700 04012KT 5SM -SHRA BR OVC015
     FM271900 02012KT P6SM SCT025 BKN040
     FM272200 36011KT P6SM SCT100
     FM280300 34006KT P6SM SKC=



000
FTUS43 KMQT 271300 AAB
TAFSAW
TAF AMD
KSAW 271349Z 2714/2812 07005KT 1/4SM FG BKN001 OVC008
      TEMPO 2715/2716 3SM -SHRA BR BKN008
     FM271600 03007KT 5SM -SHRA BR OVC008
     FM271800 01012KT P6SM -SHRA SCT015 OVC025
     FM272200 36012KT P6SM BKN050
     FM280000 35009KT P6SM SCT050
     FM280600 34007KT P6SM SKC
      AMD LTD TO CLD VIS AND WIND 2802/2810=



000
FTUS43 KMQT 271200 AAA
TAFCMX
TAF AMD
KCMX 271244Z 2713/2812 10006KT 1/4SM FG VV001
     FM271400 08007KT 2SM -SHRA BR OVC006
      TEMPO 2714/2715 1SM BR OVC003
     FM271600 04012KT 5SM -SHRA BR OVC015
     FM271900 02012KT P6SM SCT025 BKN040
     FM272200 36011KT P6SM SCT100
     FM280300 34006KT P6SM SKC=



000
FTUS43 KMQT 271200 AAA
TAFSAW
TAF AMD
KSAW 271240Z 2713/2812 07005KT 1SM BR BKN007 OVC014
      TEMPO 2713/2715 3SM -SHRA BR BKN003
     FM271500 03007KT 5SM -SHRA BR OVC008
     FM271800 01012KT P6SM -SHRA SCT015 OVC025
     FM272200 36012KT P6SM BKN050
     FM280000 35009KT P6SM SCT050
     FM280600 34007KT P6SM SKC
      AMD LTD TO CLD VIS AND WIND 2802/2810=



000
FTUS43 KMQT 271100
TAFSAW
TAF
KSAW 271123Z 2712/2812 07005KT 5SM BR SCT003 BKN120
      TEMPO 2712/2713 1SM BR BKN003
     FM271300 03007KT 5SM -SHRA BR OVC007
     FM271800 01012KT P6SM -SHRA OVC025
     FM272200 36012KT P6SM BKN050
     FM280000 35009KT P6SM SCT050
     FM280600 34007KT P6SM SKC
      AMD LTD TO CLD VIS AND WIND 2802/2810=



000
FTUS43 KMQT 271100
TAFCMX
TAF
KCMX 271123Z 2712/2812 10006KT 1/4SM FG VV001
     FM271400 08007KT 2SM -SHRA BR OVC003
     FM271600 04012KT 5SM -SHRA BR OVC015
     FM271900 02012KT P6SM SCT025 BKN040
     FM272200 36011KT P6SM SCT100
     FM280300 34006KT P6SM SKC=



000
FTUS43 KMQT 271100 AAD
TAFSAW
TAF AMD
KSAW 271107Z 2711/2806 08008KT 5SM BR SCT003 BKN120
      TEMPO 2711/2713 1SM BR BKN003
     FM271300 02007KT 3SM -SHRA BR OVC007
     FM272000 01012KT P6SM -SHRA OVC015
     FM272200 36012KT P6SM BKN030
     FM280000 35009KT P6SM SCT040
      AMD LTD TO CLD VIS AND WIND TIL 271000=



000
FTUS43 KMQT 271000 AAC
TAFCMX
TAF AMD
KCMX 271039Z 2711/2806 10006KT 1/4SM FG VV001
     FM271200 08007KT 2SM -SHRA BR OVC003
     FM271600 04012KT 5SM -SHRA BR OVC010
     FM271900 01012KT P6SM SKC=



000
FTUS43 KMQT 270900 AAC
TAFSAW
TAF AMD
KSAW 270945Z 2710/2806 08008KT 1/2SM FG VV002
      TEMPO 2711/2713 1SM BR OVC003
     FM271300 02007KT 3SM -SHRA BR OVC007
     FM272000 01012KT P6SM -SHRA OVC015
     FM272200 36012KT P6SM BKN030
     FM280000 35009KT P6SM SCT040
      AMD LTD TO CLD VIS AND WIND TIL 271000=



000
FTUS43 KMQT 270900 AAB
TAFSAW
TAF AMD
KSAW 270912Z 2709/2806 08007KT P6SM SCT070
      TEMPO 2710/2713 5SM -SHRA BR BKN040
     FM271300 02007KT 3SM -SHRA BR OVC007
     FM272000 01012KT P6SM -SHRA OVC015
     FM272200 36012KT P6SM BKN030
     FM280000 35009KT P6SM SCT040
      AMD LTD TO CLD VIS AND WIND TIL 271000=



000
FTUS43 KMQT 270900 AAB
TAFCMX
TAF AMD
KCMX 270909Z 2709/2806 05005KT 1/2SM FG VV002
     FM271200 08007KT 2SM -SHRA BR OVC003
     FM271600 04012KT 5SM -SHRA BR OVC010
     FM271900 01012KT P6SM SKC=



000
FTUS43 KMQT 270700 AAA
TAFSAW
TAF AMD
KSAW 270710Z 2707/2806 VRB03KT P6SM BKN100
      TEMPO 2707/2709 4SM -TSRA BKN080CB
     FM270900 10003KT 4SM -SHRA BR OVC015
     FM271300 02007KT 3SM -SHRA BR OVC007
     FM272000 01012KT P6SM -SHRA OVC015
     FM272200 36012KT P6SM BKN030
     FM280000 35009KT P6SM SCT040
      AMD LTD TO CLD VIS AND WIND TIL 271000=



000
FTUS43 KMQT 270600 AAA
TAFCMX
TAF AMD
KCMX 270640Z 2707/2806 05005KT 4SM -SHRA BR BKN060
      TEMPO 2707/2710 3SM -SHRA BR BKN005
     FM271200 08007KT 2SM -SHRA BR OVC003
     FM271600 04012KT 5SM -SHRA BR OVC010
     FM271900 01012KT P6SM SKC=



000
FTUS43 KMQT 270500
TAFSAW
TAF
KSAW 270520Z 2706/2806 07003KT P6SM SCT120
     FM270700 VRB03KT P6SM VCSH BKN080
     FM270900 10003KT 3SM -SHRA BR OVC015
     FM271300 02007KT 2SM -SHRA BR OVC007
     FM272000 01012KT P6SM -SHRA OVC015
     FM272200 36012KT P6SM BKN030
     FM280000 35009KT P6SM SCT040
      AMD LTD TO CLD VIS AND WIND TIL 271000=



000
FTUS43 KMQT 270500
TAFCMX
TAF
KCMX 270520Z 2706/2806 10005KT P6SM BKN003
      TEMPO 2706/2708 3SM -TSRA SCT003 BKN025CB
     FM270800 08004KT 3SM -SHRA BR BKN015
     FM271200 08007KT 2SM -SHRA BR OVC003
     FM271600 04012KT 5SM -SHRA BR OVC010
     FM271900 01012KT P6SM SKC=



000
FTUS43 KMQT 262300
TAFCMX
TAF
KCMX 262324Z 2700/2724 28005KT P6SM SKC
     FM270300 11003KT P6SM BKN120
     FM270600 11005KT 6SM -SHRA BR BKN040
     FM270900 09003KT 3SM -SHRA BR BKN015
     FM271200 08007KT 2SM -SHRA BR OVC003
     FM271600 04012KT 5SM -SHRA BR OVC010
     FM271900 01012KT P6SM SKC=



000
FTUS43 KMQT 262300
TAFSAW
TAF
KSAW 262324Z 2700/2724 02003KT P6SM SCT120
     FM270700 VRB03KT P6SM -SHRA BKN060
     FM270900 10003KT 3SM -SHRA BR OVC015
     FM271300 02007KT 2SM -SHRA BR OVC007
     FM272000 01012KT P6SM -SHRA OVC015
     FM272300 36012KT P6SM BKN030
      AMD LTD TO CLD VIS AND WIND 2702/2710=



000
FTUS43 KMQT 261700
TAFSAW
TAF
KSAW 261737Z 2618/2718 30007KT P6SM -SHRA BKN040
     FM261930 34007KT P6SM SCT045
     FM270100 04003KT P6SM FEW130
     FM270600 00000KT 3SM -SHRA BR BKN060
     FM271000 00000KT 3SM -SHRA BR OVC010
     FM271700 02006KT 5SM -SHRA OVC015
      AMD LTD TO CLD VIS AND WIND 2702/2710=



000
FTUS43 KMQT 261700
TAFCMX
TAF
KCMX 261737Z 2618/2718 29011G16KT P6SM SCT040
     FM262300 28005KT P6SM FEW120
     FM270500 11003KT 3SM -SHRA BR BKN040
     FM270900 09003KT 4SM -SHRA BR BKN015
     FM271200 09003KT 5SM -SHRA BR OVC003
     FM271600 04007KT 5SM -SHRA OVC008=



000
FTUS43 KMQT 261700 AAD
TAFSAW
TAF AMD
KSAW 261719Z 2617/2712 27009KT P6SM -SHRA OVC015
      TEMPO 2617/2618 TSRA BKN040CB
     FM261800 34010KT P6SM BKN040
     FM262100 02010KT P6SM SCT050
     FM270100 02004KT P6SM SCT100
     FM270500 VRB03KT 5SM -SHRA BR BKN025
      AMD LTD TO CLD VIS AND WIND 2702/2710=



000
FTUS43 KMQT 261600 AAC
TAFSAW
TAF AMD
KSAW 261657Z 2617/2712 27009KT P6SM -SHRA OVC015
     FM261800 34010KT P6SM BKN040
     FM262100 02010KT P6SM SCT050
     FM270100 02004KT P6SM SCT100
     FM270500 VRB03KT 5SM -SHRA BR BKN025
      AMD LTD TO CLD VIS AND WIND 2702/2710=



000
FTUS43 KMQT 261500 AAB
TAFCMX
TAF AMD
KCMX 261513Z 2615/2712 28012KT 3SM BR SCT004 BKN015
     FM261700 30012KT P6SM SCT025
     FM270100 VRB03KT P6SM SCT050 BKN100
     FM270500 VRB04KT 5SM -SHRA BR BKN035
     FM270900 10007KT 4SM -SHRA BR OVC015=



000
FTUS43 KMQT 261400 AAB
TAFSAW
TAF AMD
KSAW 261438Z 2615/2712 20007KT P6SM SCT006 OVC015
     FM261700 34009KT P6SM BKN040
     FM262100 02010KT P6SM SCT050
     FM270100 02004KT P6SM SCT100
     FM270500 VRB03KT 5SM -SHRA BR BKN025
      AMD LTD TO CLD VIS AND WIND 2702/2710=



000
FTUS43 KMQT 261200 AAA
TAFSAW
TAF AMD
KSAW 261241Z 2613/2712 20007KT P6SM OVC015
     FM261500 34009KT P6SM BKN040
     FM262100 02010KT P6SM SCT050
     FM270100 02004KT P6SM SCT100
     FM270500 VRB03KT 5SM -SHRA BR BKN025
      AMD LTD TO CLD VIS AND WIND 2702/2710=



000
FTUS43 KMQT 261200 AAA
TAFCMX
TAF AMD
KCMX 261237Z 2613/2712 20004KT 1 1/2SM BR OVC005
     FM261400 28008KT 4SM BR BKN015
     FM261700 30009KT P6SM SCT025
     FM270000 VRB03KT P6SM SCT050 BKN100
     FM270500 VRB04KT 5SM -SHRA BR BKN035
     FM270900 10007KT 4SM -SHRA BR OVC015=



000
FTUS43 KMQT 261100
TAFSAW
TAF
KSAW 261122Z 2612/2712 20007KT P6SM SCT025 BKN035
      TEMPO 2612/2615 BKN025
     FM261700 34009KT P6SM BKN040
     FM262100 02010KT P6SM SCT050
     FM270100 02004KT P6SM SCT100
     FM270500 VRB03KT 5SM -SHRA BR BKN025
      AMD LTD TO CLD VIS AND WIND 2702/2710=



000
FTUS43 KMQT 261100
TAFCMX
TAF
KCMX 261122Z 2612/2712 20004KT 2SM BR SCT002 OVC012
      TEMPO 2612/2614 5SM BR
     FM261400 28008KT P6SM BKN015
     FM261700 30009KT P6SM SCT025
     FM270000 VRB03KT P6SM SCT050 BKN100
     FM270500 VRB04KT 5SM -SHRA BR BKN035
     FM270900 10007KT 4SM -SHRA BR OVC015=



000
FTUS43 KMQT 261000 AAB
TAFSAW
TAF AMD
KSAW 261018Z 2610/2706 21005KT 6SM -SHRA BR BKN035
      TEMPO 2610/2612 4SM -TSRA BKN025CB
     FM261400 28007KT P6SM BKN020
     FM261700 34009KT P6SM BKN035
     FM262100 02010KT P6SM SCT100
     FM270100 02004KT P6SM SCT100 BKN250
      AMD LTD TO CLD VIS AND WIND TIL 261000=



000
FTUS43 KMQT 260900 AAC
TAFCMX
TAF AMD
KCMX 260957Z 2610/2706 20004KT 5SM -RA BR VCTS OVC012CB
      TEMPO 2610/2611 4SM BR OVC007
     FM261400 30008KT P6SM BKN012
     FM261700 31009KT P6SM SCT025
     FM270000 VRB03KT P6SM SCT050 BKN100=



000
FTUS43 KMQT 260900 AAB
TAFCMX
TAF AMD
KCMX 260902Z 2609/2706 20004KT 5SM BR VCSH OVC012
      TEMPO 2609/2611 4SM BR OVC007
     FM261400 30008KT P6SM BKN012
     FM261700 31009KT P6SM SCT025
     FM270000 VRB03KT P6SM SCT050 BKN100=



000
FTUS43 KMQT 260700 AAA
TAFSAW
TAF AMD
KSAW 260752Z 2608/2706 22004KT P6SM SCT025 BKN040
     FM261000 22005KT 5SM BR BKN012
     FM261400 28007KT P6SM BKN020
     FM261700 34009KT P6SM BKN035
     FM262100 02010KT P6SM SCT100
     FM270100 02004KT P6SM SCT100 BKN250
      AMD LTD TO CLD VIS AND WIND TIL 261000=



000
FTUS43 KMQT 260600 AAA
TAFCMX
TAF AMD
KCMX 260636Z 2607/2706 20004KT 5SM BR VCSH FEW004 BKN015
      TEMPO 2607/2609 4SM BR OVC004
     FM260900 27005KT 2SM BR VCSH OVC004
     FM261400 30008KT P6SM BKN012
     FM261700 31009KT P6SM SCT025
     FM270000 VRB03KT P6SM SCT050 BKN100=



000
FTUS43 KMQT 260500
TAFSAW
TAF
KSAW 260520Z 2606/2706 21007KT P6SM VCSH SCT015 BKN030
      TEMPO 2606/2610 BKN015
     FM261000 22005KT 4SM BR BKN008
     FM261400 28007KT P6SM BKN020
     FM261700 34009KT P6SM BKN035
     FM262100 02010KT P6SM SCT100
     FM270100 02004KT P6SM SCT100 BKN250
      AMD LTD TO CLD VIS AND WIND TIL 261000=



000
FTUS43 KMQT 260500
TAFCMX
TAF
KCMX 260520Z 2606/2706 20004KT P6SM VCSH FEW004 BKN015
      TEMPO 2606/2609 4SM BR OVC004
     FM260900 27005KT 2SM BR VCSH OVC004
     FM261400 30008KT P6SM BKN012
     FM261700 31009KT P6SM SCT025
     FM270000 VRB03KT P6SM SCT050 BKN100=



    US Dept of Commerce
    National Oceanic and Atmospheric Administration
    National Weather Service
    1325 East West Highway
    Silver Spring, MD 20910
    Page Author: NWS Internet Services Team
Disclaimer
Information Quality
Credits
Glossary
Privacy Policy
Freedom of Information Act (FOIA)
About Us
Career Opportunities